Terminal Aerodrome Forecast
Issued by NWS Charleston, WV

Current Version | Previous Version | Graphics & Text | Print | Product List | Glossary On
Versions: 1 2 3 4 5 6 7 8 9 10 11 12 13 14 15 16 17 18 19 20 21
000
FTUS41 KRLX 072300
TAFPKB
TAF
KPKB 072320Z 0800/0824 23012G19KT P6SM SCT040
     FM080200 22007KT 6SM SHRA BR VCTS SCT050CB
     FM081500 20011KT 6SM SHRA BR VCTS BKN040CB
     FM081700 21015G23KT 5SM +TSRA BR BKN040CB
      AMD NOT SKED=

USA.gov is the U.S. government's official web portal to all federal, state and local government web resources and services.